Time;durP1;ratioP1;P1;durP2;ratioP2;P2;SDS_P1;SDS_P2;PMS_P1;PMS_P2;Temp;Humidity;BMP_temperature;BMP_pressure;BME280_temperature;BME280_humidity;BME280_pressure;Samples;Min_cycle;Max_cycle;Signal;HPM_P1;HPM_P2
2020/10/12 00:00:27;;;;;;;;;21.75;21.00;;;;;;;;3724734;38;21113;-59
2020/10/12 00:03:11;;;;;;;;;23.75;22.25;;;;;;;;3724874;38;18314;-59
2020/10/12 00:05:38;;;;;;;;;24.25;20.75;;;;;;;;3725269;38;21151;-58
2020/10/12 00:08:41;;;;;;;;;28.00;24.75;;;;;;;;3725495;37;21143;-57
2020/10/12 00:11:36;;;;;;;;;27.50;26.25;;;;;;;;3725469;38;21138;-57
2020/10/12 00:14:41;;;;;;;;;23.75;22.00;;;;;;;;3725407;38;21131;-60
2020/10/12 00:17:25;;;;;;;;;22.25;21.75;;;;;;;;3725386;38;21135;-59
2020/10/12 00:20:20;;;;;;;;;22.00;21.50;;;;;;;;3725418;38;21148;-59
2020/10/12 00:22:46;;;;;;;;;21.25;19.25;;;;;;;;3725267;37;21134;-60
2020/10/12 00:25:12;;;;;;;;;26.25;23.50;;;;;;;;3725430;37;21109;-60
2020/10/12 00:27:38;;;;;;;;;26.50;24.25;;;;;;;;3725286;38;18285;-60
2020/10/12 00:30:12;;;;;;;;;25.25;22.75;;;;;;;;3726627;38;18286;-60
2020/10/12 00:32:40;;;;;;;;;27.25;24.75;;;;;;;;3727369;38;18310;-60
2020/10/12 00:35:08;;;;;;;;;22.75;21.75;;;;;;;;3725344;38;21100;-59
2020/10/12 00:37:36;;;;;;;;;23.50;23.00;;;;;;;;3725354;38;21092;-60
2020/10/12 00:40:02;;;;;;;;;24.75;22.00;;;;;;;;3725428;38;21105;-58
2020/10/12 00:42:30;;;;;;;;;21.50;20.75;;;;;;;;3725531;37;21069;-59
2020/10/12 00:44:59;;;;;;;;;24.00;23.00;;;;;;;;3725455;37;21066;-60
2020/10/12 00:47:25;;;;;;;;;24.50;22.25;;;;;;;;3725523;37;21072;-58
2020/10/12 00:49:51;;;;;;;;;24.00;23.25;;;;;;;;3725376;38;21085;-59
2020/10/12 00:52:18;;;;;;;;;22.50;21.25;;;;;;;;3725486;38;21085;-59
2020/10/12 00:54:44;;;;;;;;;24.00;22.00;;;;;;;;3725538;37;21086;-59
2020/10/12 00:57:14;;;;;;;;;23.25;21.75;;;;;;;;3725510;38;21074;-59
2020/10/12 00:59:40;;;;;;;;;26.50;23.25;;;;;;;;3725477;38;18270;-60
2020/10/12 01:02:35;;;;;;;;;23.25;22.75;;;;;;;;3725361;38;21085;-59
2020/10/12 01:05:19;;;;;;;;;26.50;24.25;;;;;;;;3725364;37;21075;-60
2020/10/12 01:08:16;;;;;;;;;27.00;22.00;;;;;;;;3725485;37;21076;-59
2020/10/12 01:11:00;;;;;;;;;23.75;23.00;;;;;;;;3725586;37;21123;-57
2020/10/12 01:13:44;;;;;;;;;24.00;22.25;;;;;;;;3725449;38;21077;-54
2020/10/12 01:16:19;;;;;;;;;25.75;21.25;;;;;;;;3725505;37;21056;-59
2020/10/12 01:19:03;;;;;;;;;25.00;23.50;;;;;;;;3725475;38;21019;-58
2020/10/12 01:21:53;;;;;;;;;21.25;18.00;;;;;;;;3725500;37;21073;-59
2020/10/12 01:24:37;;;;;;;;;22.00;21.00;;;;;;;;3725435;37;21083;-58
2020/10/12 01:27:34;;;;;;;;;23.75;21.50;;;;;;;;3725687;38;21033;-58
2020/10/12 01:30:29;;;;;;;;;27.50;25.75;;;;;;;;3725477;37;21039;-56
2020/10/12 01:32:57;;;;;;;;;23.00;22.25;;;;;;;;3725289;37;21007;-56
2020/10/12 01:35:35;;;;;;;;;25.00;22.25;;;;;;;;3725448;38;20999;-53
2020/10/12 01:38:07;;;;;;;;;26.75;23.00;;;;;;;;3725142;37;21008;-56
2020/10/12 01:41:02;;;;;;;;;21.50;20.50;;;;;;;;3725310;37;20949;-56
2020/10/12 01:44:00;;;;;;;;;25.25;22.75;;;;;;;;3725370;37;21039;-56
2020/10/12 01:46:46;;;;;;;;;24.00;22.25;;;;;;;;3725507;38;20949;-55
2020/10/12 01:49:18;;;;;;;;;23.75;22.25;;;;;;;;3725541;38;21017;-56
2020/10/12 01:51:45;;;;;;;;;20.25;19.25;;;;;;;;3725622;37;21007;-53
2020/10/12 01:54:24;;;;;;;;;22.25;21.25;;;;;;;;3725506;37;20985;-56
2020/10/12 01:56:50;;;;;;;;;25.25;21.50;;;;;;;;3725641;37;21006;-57
2020/10/12 01:59:16;;;;;;;;;23.50;21.50;;;;;;;;3725541;37;20980;-56
2020/10/12 02:02:01;;;;;;;;;22.75;21.00;;;;;;;;3725594;38;20973;-56
2020/10/12 02:04:55;;;;;;;;;19.50;19.50;;;;;;;;3725588;37;18186;-57
2020/10/12 02:07:53;;;;;;;;;23.25;21.50;;;;;;;;3725460;38;20981;-57
2020/10/12 02:11:12;;;;;;;;;21.00;20.00;;;;;;;;3725368;38;20989;-57
2020/10/12 02:13:51;;;;;;;;;21.75;20.00;;;;;;;;3725394;38;20881;-56
2020/10/12 02:16:37;;;;;;;;;22.25;20.50;;;;;;;;3725491;37;20991;-57
2020/10/12 02:19:25;;;;;;;;;21.25;20.25;;;;;;;;3725250;37;20982;-56
2020/10/12 02:22:18;;;;;;;;;23.25;19.25;;;;;;;;3725489;38;20974;-57
2020/10/12 02:25:04;;;;;;;;;22.00;21.25;;;;;;;;3725352;38;20977;-56
2020/10/12 02:27:48;;;;;;;;;27.00;24.00;;;;;;;;3725502;37;20941;-57
2020/10/12 02:30:33;;;;;;;;;25.50;22.25;;;;;;;;3725392;38;20985;-57
2020/10/12 02:33:00;;;;;;;;;21.25;19.25;;;;;;;;3725475;37;20960;-56
2020/10/12 02:35:27;;;;;;;;;22.25;19.75;;;;;;;;3725561;37;20943;-56
2020/10/12 02:37:55;;;;;;;;;25.25;21.25;;;;;;;;3725336;38;20912;-57
2020/10/12 02:40:47;;;;;;;;;21.75;21.75;;;;;;;;3725464;38;20947;-56
2020/10/12 02:43:35;;;;;;;;;22.25;20.00;;;;;;;;3725537;37;20924;-56
2020/10/12 02:46:28;;;;;;;;;25.75;22.25;;;;;;;;3725629;37;20950;-56
2020/10/12 02:49:13;;;;;;;;;18.75;17.75;;;;;;;;3725539;37;20965;-57
2020/10/12 02:52:11;;;;;;;;;23.00;20.00;;;;;;;;3725397;37;20960;-58
2020/10/12 02:54:40;;;;;;;;;22.25;21.25;;;;;;;;3725482;37;20922;-56
2020/10/12 02:57:29;;;;;;;;;22.25;20.25;;;;;;;;3725531;38;20907;-56
2020/10/12 02:59:57;;;;;;;;;23.25;20.50;;;;;;;;3725352;37;20915;-57
2020/10/12 03:02:49;;;;;;;;;23.00;22.50;;;;;;;;3725398;37;20888;-56
2020/10/12 03:05:50;;;;;;;;;19.50;18.50;;;;;;;;3725402;38;20908;-56
2020/10/12 03:08:34;;;;;;;;;20.25;19.25;;;;;;;;3725472;38;20902;-56
2020/10/12 03:11:18;;;;;;;;;20.75;20.50;;;;;;;;3725419;38;20914;-56
2020/10/12 03:14:03;;;;;;;;;24.75;19.75;;;;;;;;3725361;38;20909;-56
2020/10/12 03:16:55;;;;;;;;;21.00;18.50;;;;;;;;3725388;37;20885;-56
2020/10/12 03:19:39;;;;;;;;;20.75;18.00;;;;;;;;3725285;37;20900;-56
2020/10/12 03:22:36;;;;;;;;;21.75;19.25;;;;;;;;3725496;38;20922;-56
2020/10/12 03:25:39;;;;;;;;;21.25;20.00;;;;;;;;3725451;38;20882;-56
2020/10/12 03:28:23;;;;;;;;;22.75;20.50;;;;;;;;3725429;37;20866;-55
2020/10/12 03:31:17;;;;;;;;;19.25;18.50;;;;;;;;3725398;38;20873;-57
2020/10/12 03:34:08;;;;;;;;;21.00;20.00;;;;;;;;3725338;38;20844;-57
2020/10/12 03:43:04;;;;;;;;;22.75;20.75;;;;;;;;3725517;37;20787;-57
2020/10/12 03:45:48;;;;;;;;;23.00;21.25;;;;;;;;3725608;38;20878;-56
2020/10/12 03:48:34;;;;;;;;;24.25;24.00;;;;;;;;3725402;38;20877;-56
2020/10/12 03:54:47;;;;;;;;;20.75;20.00;;;;;;;;3725452;37;20791;-55
2020/10/12 03:57:37;;;;;;;;;21.25;20.00;;;;;;;;3725353;37;20815;-56
2020/10/12 04:00:54;;;;;;;;;21.75;20.25;;;;;;;;3725438;37;20816;-57
2020/10/12 04:03:39;;;;;;;;;19.00;17.00;;;;;;;;3725256;37;20838;-56
2020/10/12 04:06:44;;;;;;;;;17.50;17.50;;;;;;;;3725606;37;20819;-56
2020/10/12 04:12:31;;;;;;;;;21.00;19.50;;;;;;;;3725687;38;20753;-57
2020/10/12 04:15:18;;;;;;;;;21.50;20.75;;;;;;;;3725549;37;20847;-56
2020/10/12 04:21:00;;;;;;;;;23.25;20.75;;;;;;;;3725483;37;20785;-57
2020/10/12 04:44:53;;;;;;;;;20.25;19.00;;;;;;;;3725565;37;20851;-57
2020/10/12 04:47:40;;;;;;;;;21.25;20.00;;;;;;;;3725558;37;20802;-58
2020/10/12 04:50:29;;;;;;;;;19.25;19.25;;;;;;;;3725366;37;20799;-55
2020/10/12 04:52:57;;;;;;;;;21.00;19.25;;;;;;;;3725577;37;20795;-56
2020/10/12 04:55:25;;;;;;;;;23.50;21.25;;;;;;;;3725498;38;20742;-57
2020/10/12 04:58:24;;;;;;;;;19.25;18.75;;;;;;;;3725573;38;20740;-57
2020/10/12 05:01:10;;;;;;;;;21.50;19.75;;;;;;;;3725622;38;20770;-57
2020/10/12 05:03:53;;;;;;;;;19.50;18.75;;;;;;;;3725452;37;20760;-57
2020/10/12 05:06:53;;;;;;;;;22.00;18.25;;;;;;;;3725500;38;20790;-57
2020/10/12 05:09:24;;;;;;;;;19.50;19.00;;;;;;;;3725576;37;20777;-57
2020/10/12 05:11:56;;;;;;;;;23.75;20.25;;;;;;;;3725577;37;20874;-55
2020/10/12 05:14:22;;;;;;;;;21.00;18.75;;;;;;;;3725433;37;20738;-56
2020/10/12 05:16:49;;;;;;;;;22.00;20.00;;;;;;;;3725425;38;20777;-57
2020/10/12 05:19:21;;;;;;;;;26.00;22.00;;;;;;;;3725422;37;20724;-56
2020/10/12 05:21:51;;;;;;;;;22.50;20.50;;;;;;;;3725548;37;20735;-56
2020/10/12 05:24:36;;;;;;;;;21.00;18.50;;;;;;;;3725515;38;20737;-56
2020/10/12 05:27:25;;;;;;;;;22.50;20.00;;;;;;;;3725505;37;20705;-54
2020/10/12 05:29:51;;;;;;;;;18.00;17.00;;;;;;;;3725457;37;20773;-56
2020/10/12 05:32:18;;;;;;;;;21.00;18.00;;;;;;;;3725508;38;20696;-56
2020/10/12 05:34:44;;;;;;;;;21.00;19.75;;;;;;;;3725502;37;20736;-56
2020/10/12 05:37:11;;;;;;;;;19.50;17.50;;;;;;;;3725448;37;20704;-56
2020/10/12 05:39:44;;;;;;;;;20.50;20.50;;;;;;;;3725429;38;20746;-56
2020/10/12 05:42:11;;;;;;;;;20.00;18.50;;;;;;;;3725477;37;20719;-56
2020/10/12 05:44:38;;;;;;;;;25.50;22.50;;;;;;;;3725405;38;20721;-55
2020/10/12 05:47:15;;;;;;;;;20.75;19.75;;;;;;;;3725427;38;20673;-54
2020/10/12 05:49:42;;;;;;;;;22.00;19.50;;;;;;;;3725349;37;20794;-56
2020/10/12 05:52:12;;;;;;;;;17.00;16.50;;;;;;;;3725383;38;20693;-56
2020/10/12 05:54:39;;;;;;;;;23.00;20.00;;;;;;;;3725570;38;20721;-56
2020/10/12 05:57:06;;;;;;;;;22.75;20.00;;;;;;;;3725808;37;20671;-56
2020/10/12 05:59:32;;;;;;;;;25.00;20.25;;;;;;;;3726018;38;17847;-56
2020/10/12 06:01:58;;;;;;;;;24.75;19.75;;;;;;;;3725427;37;20711;-56
2020/10/12 06:04:25;;;;;;;;;21.25;19.00;;;;;;;;3726423;37;20663;-56
2020/10/12 06:06:52;;;;;;;;;25.25;21.50;;;;;;;;3725821;37;20679;-56
2020/10/12 06:09:18;;;;;;;;;24.50;21.75;;;;;;;;3725161;37;17855;-56
2020/10/12 06:11:44;;;;;;;;;26.00;24.00;;;;;;;;3725493;37;20647;-56
2020/10/12 06:14:10;;;;;;;;;25.50;23.50;;;;;;;;3725472;37;17847;-56
2020/10/12 06:16:36;;;;;;;;;32.25;26.75;;;;;;;;3725435;37;20641;-54
2020/10/12 06:19:02;;;;;;;;;26.50;23.50;;;;;;;;3725579;37;20644;-55
2020/10/12 06:21:30;;;;;;;;;26.75;25.00;;;;;;;;3725392;38;17823;-55
2020/10/12 06:24:15;;;;;;;;;30.75;26.25;;;;;;;;3725250;38;17822;-55
2020/10/12 06:26:41;;;;;;;;;25.75;24.50;;;;;;;;3725249;37;20631;-55
2020/10/12 06:29:15;;;;;;;;;29.50;24.50;;;;;;;;3725161;38;20627;-55
2020/10/12 06:31:42;;;;;;;;;29.50;27.00;;;;;;;;3725601;38;20641;-60
2020/10/12 06:34:08;;;;;;;;;30.00;23.25;;;;;;;;3725438;37;20610;-64
2020/10/12 06:36:34;;;;;;;;;23.50;22.25;;;;;;;;3725532;37;20668;-61
2020/10/12 06:39:00;;;;;;;;;38.50;29.25;;;;;;;;3725390;38;17815;-57
2020/10/12 06:41:26;;;;;;;;;28.75;24.00;;;;;;;;3725768;37;17811;-57
2020/10/12 06:43:52;;;;;;;;;27.00;24.25;;;;;;;;3725883;38;17818;-57
2020/10/12 06:46:19;;;;;;;;;25.75;25.25;;;;;;;;3726355;38;18083;-57
2020/10/12 06:48:45;;;;;;;;;31.25;29.00;;;;;;;;3726257;37;20638;-55
2020/10/12 06:51:11;;;;;;;;;35.50;28.25;;;;;;;;3725776;37;20619;-59
2020/10/12 06:53:37;;;;;;;;;33.25;31.50;;;;;;;;3725946;37;17772;-56
2020/10/12 06:56:03;;;;;;;;;34.50;32.25;;;;;;;;3726158;38;17768;-57
2020/10/12 06:58:29;;;;;;;;;38.50;32.50;;;;;;;;3725578;38;17779;-56
2020/10/12 07:00:56;;;;;;;;;37.00;32.25;;;;;;;;3725559;38;20603;-57
2020/10/12 07:03:24;;;;;;;;;42.50;36.00;;;;;;;;3725579;37;17775;-55
2020/10/12 07:05:50;;;;;;;;;41.50;35.25;;;;;;;;3725288;37;20591;-56
2020/10/12 07:08:16;;;;;;;;;43.25;33.75;;;;;;;;3725540;38;20572;-55
2020/10/12 07:10:42;;;;;;;;;39.00;33.75;;;;;;;;3725583;38;20524;-56
2020/10/12 07:13:08;;;;;;;;;34.50;31.00;;;;;;;;3725291;37;20514;-56
2020/10/12 07:15:35;;;;;;;;;35.00;32.25;;;;;;;;3725737;38;17778;-55
2020/10/12 07:18:01;;;;;;;;;36.50;32.25;;;;;;;;3725539;37;17748;-56
2020/10/12 07:20:27;;;;;;;;;34.25;32.50;;;;;;;;3725462;37;20551;-55
2020/10/12 07:22:54;;;;;;;;;36.50;30.50;;;;;;;;3725492;37;20544;-60
2020/10/12 07:25:19;;;;;;;;;40.50;35.25;;;;;;;;3725446;38;20559;-56
2020/10/12 07:27:48;;;;;;;;;39.00;33.00;;;;;;;;3725595;37;20561;-58
2020/10/12 07:30:14;;;;;;;;;41.25;34.75;;;;;;;;3725506;37;17742;-56
2020/10/12 07:32:46;;;;;;;;;40.50;34.00;;;;;;;;3725414;37;20634;-56
2020/10/12 07:35:14;;;;;;;;;37.00;32.25;;;;;;;;3725501;37;20547;-56
2020/10/12 07:37:40;;;;;;;;;37.25;32.50;;;;;;;;3725262;38;20550;-55
2020/10/12 07:40:06;;;;;;;;;36.00;30.25;;;;;;;;3725502;38;20526;-55
2020/10/12 07:42:32;;;;;;;;;39.75;33.75;;;;;;;;3725712;37;20539;-56
2020/10/12 07:44:58;;;;;;;;;38.75;32.50;;;;;;;;3725538;37;20552;-56
2020/10/12 07:47:24;;;;;;;;;37.00;32.50;;;;;;;;3725710;37;20546;-57
2020/10/12 07:49:51;;;;;;;;;37.75;32.25;;;;;;;;3725528;38;17697;-56
2020/10/12 07:52:18;;;;;;;;;41.00;34.50;;;;;;;;3725656;37;17707;-57
2020/10/12 07:54:44;;;;;;;;;36.00;32.00;;;;;;;;3725587;38;20514;-54
2020/10/12 07:57:10;;;;;;;;;40.50;33.00;;;;;;;;3725522;38;20500;-56
2020/10/12 07:59:36;;;;;;;;;39.75;35.25;;;;;;;;3725494;37;17702;-56
2020/10/12 08:02:02;;;;;;;;;43.00;36.50;;;;;;;;3725511;38;20512;-56
2020/10/12 08:04:30;;;;;;;;;41.25;35.00;;;;;;;;3725401;38;20518;-56
2020/10/12 08:06:58;;;;;;;;;37.75;33.00;;;;;;;;3725626;38;17702;-55
2020/10/12 08:09:24;;;;;;;;;38.00;32.50;;;;;;;;3725315;37;20498;-55
2020/10/12 08:11:50;;;;;;;;;34.50;32.00;;;;;;;;3725006;37;20497;-55
2020/10/12 08:14:17;;;;;;;;;37.25;32.50;;;;;;;;3725638;37;20480;-55
2020/10/12 08:16:44;;;;;;;;;38.00;32.50;;;;;;;;3725627;37;20552;-56
2020/10/12 08:19:10;;;;;;;;;41.75;35.25;;;;;;;;3725358;37;20492;-55
2020/10/12 08:21:36;;;;;;;;;23.25;21.25;;;;;;;;3725545;37;20503;-53
2020/10/12 08:24:02;;;;;;;;;40.75;35.25;;;;;;;;3725780;38;17663;-54
2020/10/12 08:26:28;;;;;;;;;38.00;33.25;;;;;;;;3725599;38;17677;-54
2020/10/12 08:28:54;;;;;;;;;35.00;31.75;;;;;;;;3725476;37;17662;-55
2020/10/12 08:31:20;;;;;;;;;33.50;31.25;;;;;;;;3725200;38;20490;-55
2020/10/12 08:33:46;;;;;;;;;41.50;34.25;;;;;;;;3725373;37;17670;-56
2020/10/12 08:36:12;;;;;;;;;36.25;30.75;;;;;;;;3725321;38;20497;-54
2020/10/12 08:38:38;;;;;;;;;33.75;31.25;;;;;;;;3725375;37;17607;-55
2020/10/12 08:41:04;;;;;;;;;36.75;32.25;;;;;;;;3725385;37;20443;-56
2020/10/12 08:43:30;;;;;;;;;32.50;31.50;;;;;;;;3725234;37;17643;-56
2020/10/12 08:45:56;;;;;;;;;43.25;33.50;;;;;;;;3725573;38;20467;-56
2020/10/12 08:48:22;;;;;;;;;36.50;32.75;;;;;;;;3725499;38;17647;-55
2020/10/12 08:50:49;;;;;;;;;35.50;32.50;;;;;;;;3725502;38;17621;-56
2020/10/12 08:53:15;;;;;;;;;38.50;34.00;;;;;;;;3725833;38;20438;-56
2020/10/12 08:55:41;;;;;;;;;41.50;35.00;;;;;;;;3725361;37;20437;-55
2020/10/12 08:58:07;;;;;;;;;41.50;33.75;;;;;;;;3725931;38;17616;-59
2020/10/12 09:00:33;;;;;;;;;37.75;32.75;;;;;;;;3725455;37;20425;-52
2020/10/12 09:02:59;;;;;;;;;41.50;33.50;;;;;;;;3725691;37;20438;-52
2020/10/12 09:05:25;;;;;;;;;44.00;35.25;;;;;;;;3726074;37;17613;-52
2020/10/12 09:07:51;;;;;;;;;36.25;32.50;;;;;;;;3726250;38;17611;-52
2020/10/12 09:10:17;;;;;;;;;38.75;33.75;;;;;;;;3726723;37;17587;-53
2020/10/12 09:12:43;;;;;;;;;41.75;34.00;;;;;;;;3727471;38;18594;-52
2020/10/12 09:15:09;;;;;;;;;44.25;34.75;;;;;;;;3726522;37;18606;-51
2020/10/12 09:17:35;;;;;;;;;38.50;32.75;;;;;;;;3725402;37;21401;-53
2020/10/12 09:20:01;;;;;;;;;37.00;32.75;;;;;;;;3725651;38;17601;-52
2020/10/12 09:22:27;;;;;;;;;36.00;32.25;;;;;;;;3725379;38;17596;-52
2020/10/12 09:24:53;;;;;;;;;36.25;32.25;;;;;;;;3725435;38;21471;-53
2020/10/12 09:27:19;;;;;;;;;41.50;33.75;;;;;;;;3725638;38;17592;-54
2020/10/12 09:29:45;;;;;;;;;40.25;32.75;;;;;;;;3725815;37;18571;-52
2020/10/12 09:32:10;;;;;;;;;33.50;30.75;;;;;;;;3725607;38;18580;-52
2020/10/12 09:34:36;;;;;;;;;38.50;33.00;;;;;;;;3725825;37;18560;-52
2020/10/12 09:37:03;;;;;;;;;36.00;31.25;;;;;;;;3725906;38;18562;-54
2020/10/12 09:39:30;;;;;;;;;35.50;32.25;;;;;;;;3725591;38;21369;-53
2020/10/12 09:41:56;;;;;;;;;39.25;33.25;;;;;;;;3725422;37;21344;-52
2020/10/12 09:44:24;;;;;;;;;35.75;32.25;;;;;;;;3725680;38;18566;-52
2020/10/12 09:46:50;;;;;;;;;38.00;31.00;;;;;;;;3725577;38;21343;-53
2020/10/12 09:49:17;;;;;;;;;37.50;32.00;;;;;;;;3725656;38;18547;-52
2020/10/12 09:51:44;;;;;;;;;33.25;31.75;;;;;;;;3725667;38;18532;-53
2020/10/12 09:54:10;;;;;;;;;34.50;30.50;;;;;;;;3725446;38;21349;-52
2020/10/12 09:56:36;;;;;;;;;40.00;33.00;;;;;;;;3725558;37;21360;-51
2020/10/12 09:59:03;;;;;;;;;41.50;31.75;;;;;;;;3725275;38;18551;-52
2020/10/12 10:01:29;;;;;;;;;36.50;29.75;;;;;;;;3725657;38;18540;-52
2020/10/12 10:03:55;;;;;;;;;33.25;30.00;;;;;;;;3725498;38;21398;-54
2020/10/12 10:06:23;;;;;;;;;35.75;30.75;;;;;;;;3725527;38;18508;-54
2020/10/12 10:08:49;;;;;;;;;29.25;28.00;;;;;;;;3725629;37;18542;-53
2020/10/12 10:11:16;;;;;;;;;40.00;31.25;;;;;;;;3725635;37;21331;-53
2020/10/12 10:13:43;;;;;;;;;33.75;31.00;;;;;;;;3725644;37;18491;-51
2020/10/12 10:16:12;;;;;;;;;35.50;30.25;;;;;;;;3725229;37;21341;-52
2020/10/12 10:18:38;;;;;;;;;33.00;28.75;;;;;;;;3725535;37;21321;-52
2020/10/12 10:21:04;;;;;;;;;36.50;31.75;;;;;;;;3725551;37;21326;-52
2020/10/12 10:23:30;;;;;;;;;36.00;29.25;;;;;;;;3725565;38;18523;-53
2020/10/12 10:25:56;;;;;;;;;36.25;32.00;;;;;;;;3725665;37;18491;-52
2020/10/12 10:28:22;;;;;;;;;40.25;30.25;;;;;;;;3725697;38;18491;-51
2020/10/12 10:30:48;;;;;;;;;31.50;27.25;;;;;;;;3724917;38;21293;-53
2020/10/12 10:33:15;;;;;;;;;28.75;27.25;;;;;;;;3724967;38;18486;-53
2020/10/12 10:35:41;;;;;;;;;27.25;26.25;;;;;;;;3725314;38;18496;-53
2020/10/12 10:38:07;;;;;;;;;32.75;28.50;;;;;;;;3725592;37;21315;-54
2020/10/12 10:40:32;;;;;;;;;32.50;29.75;;;;;;;;3725565;37;18499;-54
2020/10/12 10:43:05;;;;;;;;;27.25;25.25;;;;;;;;3725465;37;18488;-54
2020/10/12 10:45:31;;;;;;;;;33.75;23.25;;;;;;;;3725630;37;18491;-54
2020/10/12 10:47:57;;;;;;;;;31.25;27.25;;;;;;;;3725440;38;21343;-54
2020/10/12 10:50:38;;;;;;;;;27.25;25.00;;;;;;;;3725642;38;18476;-53
2020/10/12 10:53:05;;;;;;;;;28.00;26.00;;;;;;;;3725376;37;21256;-53
2020/10/12 10:55:30;;;;;;;;;27.00;26.50;;;;;;;;3725540;37;18460;-53
2020/10/12 10:57:57;;;;;;;;;26.75;24.25;;;;;;;;3725604;37;21282;-53
2020/10/12 11:00:23;;;;;;;;;29.50;27.50;;;;;;;;3725635;38;18450;-53
2020/10/12 11:02:49;;;;;;;;;30.50;27.50;;;;;;;;3725579;37;21262;-52
2020/10/12 11:05:15;;;;;;;;;28.25;25.50;;;;;;;;3725467;37;21258;-53
2020/10/12 11:07:41;;;;;;;;;27.00;26.50;;;;;;;;3725177;37;18453;-53
2020/10/12 11:10:08;;;;;;;;;31.00;23.75;;;;;;;;3725478;37;21247;-53
2020/10/12 11:12:34;;;;;;;;;28.75;26.00;;;;;;;;3725214;37;21295;-53
2020/10/12 11:15:00;;;;;;;;;23.00;22.00;;;;;;;;3725599;38;21245;-57
2020/10/12 11:17:26;;;;;;;;;28.00;25.50;;;;;;;;3725435;37;21166;-58
2020/10/12 11:19:52;;;;;;;;;30.25;26.00;;;;;;;;3725600;38;18414;-52
2020/10/12 11:22:18;;;;;;;;;32.00;27.50;;;;;;;;3724686;38;18423;-53
2020/10/12 11:24:44;;;;;;;;;27.50;24.25;;;;;;;;3725549;38;21226;-53
2020/10/12 11:27:10;;;;;;;;;27.00;23.00;;;;;;;;3725556;37;21232;-53
2020/10/12 11:29:36;;;;;;;;;27.25;24.00;;;;;;;;3725762;37;18432;-53
2020/10/12 11:32:03;;;;;;;;;26.50;26.00;;;;;;;;3726428;38;21238;-52
2020/10/12 11:34:30;;;;;;;;;25.25;22.75;;;;;;;;3725662;37;18393;-53
2020/10/12 11:36:56;;;;;;;;;31.00;25.75;;;;;;;;3725538;37;21218;-54
2020/10/12 11:39:32;;;;;;;;;31.00;26.75;;;;;;;;3725535;37;21224;-53
2020/10/12 11:41:59;;;;;;;;;33.50;29.00;;;;;;;;3725763;38;18394;-53
2020/10/12 11:44:25;;;;;;;;;29.75;27.75;;;;;;;;3725754;37;21253;-54
2020/10/12 11:46:51;;;;;;;;;28.00;25.75;;;;;;;;3725577;38;21200;-54
2020/10/12 11:49:17;;;;;;;;;31.25;28.75;;;;;;;;3725554;37;18388;-54
2020/10/12 11:51:43;;;;;;;;;31.75;29.00;;;;;;;;3725747;38;18398;-54
2020/10/12 11:54:09;;;;;;;;;29.75;28.25;;;;;;;;3725545;37;21143;-54
2020/10/12 11:56:34;;;;;;;;;31.75;30.50;;;;;;;;3725670;37;18373;-55
2020/10/12 11:59:02;;;;;;;;;32.75;29.50;;;;;;;;3725528;38;18384;-55
2020/10/12 12:01:28;;;;;;;;;31.75;26.50;;;;;;;;3725356;37;18359;-53
2020/10/12 12:03:53;;;;;;;;;32.50;28.25;;;;;;;;3724989;37;21191;-54
2020/10/12 12:06:20;;;;;;;;;31.25;28.25;;;;;;;;3725751;38;18350;-54
2020/10/12 12:08:46;;;;;;;;;33.75;30.50;;;;;;;;3728131;37;18361;-54
2020/10/12 12:11:12;;;;;;;;;28.00;25.50;;;;;;;;3728427;37;21160;-54
2020/10/12 12:13:38;;;;;;;;;27.50;26.00;;;;;;;;3726804;38;21180;-53
2020/10/12 12:16:04;;;;;;;;;36.00;29.25;;;;;;;;3726312;37;21160;-56
2020/10/12 12:18:30;;;;;;;;;28.50;27.50;;;;;;;;3727278;37;18359;-55
2020/10/12 12:20:56;;;;;;;;;30.75;29.00;;;;;;;;3726580;37;21160;-54
2020/10/12 12:23:28;;;;;;;;;31.00;28.25;;;;;;;;3725688;37;18354;-54
2020/10/12 12:25:54;;;;;;;;;29.75;29.25;;;;;;;;3725762;38;18355;-53
2020/10/12 12:28:20;;;;;;;;;34.50;27.50;;;;;;;;3725699;38;21143;-54
2020/10/12 12:30:46;;;;;;;;;32.25;28.00;;;;;;;;3725597;37;18334;-54
2020/10/12 12:33:12;;;;;;;;;29.25;28.50;;;;;;;;3725649;38;18321;-54
2020/10/12 12:35:38;;;;;;;;;32.25;29.75;;;;;;;;3725681;37;18329;-54
2020/10/12 12:38:05;;;;;;;;;28.00;27.25;;;;;;;;3725586;37;21128;-55
2020/10/12 12:40:31;;;;;;;;;38.75;31.50;;;;;;;;3725472;37;18307;-54
2020/10/12 12:42:57;;;;;;;;;30.25;27.50;;;;;;;;3725442;38;21175;-54
2020/10/12 12:45:25;;;;;;;;;30.25;28.00;;;;;;;;3725517;38;18311;-54
2020/10/12 12:47:51;;;;;;;;;33.50;30.75;;;;;;;;3725460;38;21124;-55
2020/10/12 12:50:17;;;;;;;;;33.00;29.75;;;;;;;;3725336;37;21116;-54
2020/10/12 12:52:44;;;;;;;;;25.75;25.25;;;;;;;;3725560;37;18316;-54
2020/10/12 12:55:11;;;;;;;;;26.25;25.75;;;;;;;;3725327;38;18317;-52
2020/10/12 12:57:38;;;;;;;;;30.50;27.25;;;;;;;;3724949;38;21104;-55
2020/10/12 13:00:06;;;;;;;;;32.00;29.00;;;;;;;;3724920;38;21118;-52
2020/10/12 13:02:32;;;;;;;;;29.50;26.00;;;;;;;;3725241;37;21094;-53
2020/10/12 13:04:58;;;;;;;;;30.00;27.75;;;;;;;;3725685;37;21103;-54
2020/10/12 13:07:27;;;;;;;;;28.25;26.75;;;;;;;;3725605;37;18278;-54
2020/10/12 13:09:54;;;;;;;;;30.25;26.00;;;;;;;;3725617;37;18266;-55
2020/10/12 13:12:20;;;;;;;;;27.50;26.75;;;;;;;;3725610;38;21082;-54
2020/10/12 13:14:46;;;;;;;;;27.75;26.00;;;;;;;;3725698;38;21077;-54
2020/10/12 13:17:12;;;;;;;;;26.75;24.75;;;;;;;;3725955;37;18285;-55
2020/10/12 13:19:38;;;;;;;;;32.00;28.25;;;;;;;;3725550;38;18258;-56
2020/10/12 13:22:07;;;;;;;;;27.75;25.75;;;;;;;;3725518;38;18266;-55
2020/10/12 13:24:33;;;;;;;;;29.75;28.00;;;;;;;;3725765;37;21086;-55
2020/10/12 13:26:59;;;;;;;;;28.50;26.00;;;;;;;;3725653;38;21051;-54
2020/10/12 13:29:30;;;;;;;;;27.00;24.50;;;;;;;;3725801;38;18252;-56
2020/10/12 13:31:55;;;;;;;;;25.25;24.25;;;;;;;;3725805;37;18235;-55
2020/10/12 13:34:21;;;;;;;;;30.25;25.25;;;;;;;;3725592;37;21074;-54
2020/10/12 13:36:47;;;;;;;;;32.25;30.75;;;;;;;;3725684;38;18233;-55
2020/10/12 13:39:17;;;;;;;;;33.25;30.00;;;;;;;;3725604;38;18244;-55
2020/10/12 13:41:43;;;;;;;;;35.25;26.75;;;;;;;;3725758;38;18250;-55
2020/10/12 13:44:09;;;;;;;;;32.50;29.50;;;;;;;;3725551;38;21034;-53
2020/10/12 13:46:35;;;;;;;;;27.50;24.75;;;;;;;;3725636;38;21038;-61
2020/10/12 13:49:03;;;;;;;;;28.50;26.00;;;;;;;;3725481;37;21035;-55
2020/10/12 13:51:29;;;;;;;;;31.00;29.25;;;;;;;;3725531;38;21043;-56
2020/10/12 13:53:54;;;;;;;;;26.25;24.25;;;;;;;;3725522;37;21036;-56
2020/10/12 13:56:21;;;;;;;;;28.75;26.25;;;;;;;;3725760;37;18236;-54
2020/10/12 13:58:47;;;;;;;;;26.25;25.00;;;;;;;;3725173;38;18202;-54
2020/10/12 14:01:13;;;;;;;;;26.00;25.25;;;;;;;;3725326;38;21030;-55
2020/10/12 14:03:40;;;;;;;;;29.50;26.00;;;;;;;;3725299;37;21046;-57
2020/10/12 14:06:07;;;;;;;;;31.25;26.00;;;;;;;;3725478;38;20999;-56
2020/10/12 14:08:33;;;;;;;;;24.00;21.25;;;;;;;;3725590;38;20965;-54
2020/10/12 14:10:59;;;;;;;;;29.00;26.00;;;;;;;;3725579;37;20996;-54
2020/10/12 14:13:25;;;;;;;;;34.00;29.25;;;;;;;;3725480;38;18183;-56
2020/10/12 14:15:51;;;;;;;;;30.00;27.50;;;;;;;;3725673;37;18171;-54
2020/10/12 14:18:19;;;;;;;;;27.75;26.00;;;;;;;;3725612;37;20956;-56
2020/10/12 14:20:45;;;;;;;;;29.25;25.00;;;;;;;;3725680;37;20977;-56
2020/10/12 14:23:11;;;;;;;;;24.50;23.50;;;;;;;;3725609;37;21054;-55
2020/10/12 14:25:37;;;;;;;;;27.50;26.00;;;;;;;;3725733;38;20997;-55
2020/10/12 14:28:03;;;;;;;;;23.25;20.25;;;;;;;;3724736;38;18188;-56
2020/10/12 14:30:29;;;;;;;;;25.00;24.00;;;;;;;;3725568;38;18142;-56
2020/10/12 14:32:54;;;;;;;;;25.50;24.00;;;;;;;;3725521;38;18181;-55
2020/10/12 14:35:20;;;;;;;;;23.00;22.50;;;;;;;;3725563;38;18165;-55
2020/10/12 14:37:46;;;;;;;;;24.75;22.50;;;;;;;;3725427;38;18145;-54
2020/10/12 14:40:12;;;;;;;;;22.25;22.00;;;;;;;;3725576;38;18138;-54
2020/10/12 14:42:39;;;;;;;;;23.25;21.25;;;;;;;;3725718;37;18155;-54
2020/10/12 14:45:05;;;;;;;;;27.75;25.25;;;;;;;;3725584;37;20971;-56
2020/10/12 14:47:31;;;;;;;;;27.50;24.75;;;;;;;;3725546;38;20950;-54
2020/10/12 14:49:57;;;;;;;;;25.00;24.00;;;;;;;;3725831;37;20968;-62
2020/10/12 14:52:25;;;;;;;;;24.50;23.25;;;;;;;;3726056;38;20965;-54
2020/10/12 14:54:51;;;;;;;;;24.00;23.00;;;;;;;;3725564;37;18119;-53
2020/10/12 14:57:17;;;;;;;;;27.75;27.25;;;;;;;;3725956;37;20936;-53
2020/10/12 14:59:43;;;;;;;;;28.50;27.00;;;;;;;;3725881;38;20927;-54
2020/10/12 15:02:10;;;;;;;;;31.25;29.00;;;;;;;;3725613;37;18140;-53
2020/10/12 15:04:36;;;;;;;;;35.75;32.00;;;;;;;;3725626;38;20954;-54
2020/10/12 15:07:02;;;;;;;;;36.25;32.00;;;;;;;;3725713;37;20930;-53
2020/10/12 15:09:28;;;;;;;;;34.75;32.00;;;;;;;;3725522;38;20912;-54
2020/10/12 15:11:54;;;;;;;;;29.75;26.75;;;;;;;;3725778;37;18102;-55
2020/10/12 15:14:20;;;;;;;;;33.75;31.50;;;;;;;;3725741;38;18099;-54
2020/10/12 15:16:46;;;;;;;;;39.75;32.50;;;;;;;;3725861;38;20921;-55